Time;durP1;ratioP1;P1;durP2;ratioP2;P2;SDS_P1;SDS_P2;PMS_P1;PMS_P2;Temp;Humidity;BMP_temperature;BMP_pressure;BME280_temperature;BME280_humidity;BME280_pressure;Samples;Min_cycle;Max_cycle;Signal;HPM_P1;HPM_P2
2022/06/12 00:00:25;;;;;;;16.45;5.45;;;14.00;85.20;;;;;;5037044;28;20048;-82
2022/06/12 00:02:51;;;;;;;14.13;4.53;;;13.90;84.90;;;;;;5037365;28;20048;-83
2022/06/12 00:05:20;;;;;;;16.90;5.00;;;13.80;86.20;;;;;;5053621;28;20044;-83
2022/06/12 00:07:46;;;;;;;17.23;4.97;;;13.80;86.50;;;;;;5037243;28;20041;-83
2022/06/12 00:10:13;;;;;;;18.55;4.32;;;13.70;86.30;;;;;;5037108;28;20087;-82
2022/06/12 00:12:41;;;;;;;16.70;5.60;;;13.70;85.30;;;;;;5037123;28;20099;-82
2022/06/12 00:15:08;;;;;;;17.15;5.20;;;13.80;84.90;;;;;;5036734;28;20144;-83
2022/06/12 00:17:34;;;;;;;12.55;4.68;;;13.80;86.50;;;;;;5053299;28;20052;-82
2022/06/12 00:19:59;;;;;;;14.00;4.40;;;13.80;85.80;;;;;;5037049;28;20041;-82
2022/06/12 00:22:25;;;;;;;14.63;4.50;;;13.80;86.10;;;;;;5003981;28;20033;-84
2022/06/12 00:24:51;;;;;;;15.73;4.78;;;13.80;85.40;;;;;;5020256;28;20033;-82
2022/06/12 00:27:17;;;;;;;13.07;4.32;;;13.80;85.60;;;;;;5020358;28;20048;-81
2022/06/12 00:29:44;;;;;;;11.98;4.45;;;13.80;86.70;;;;;;5036614;28;20068;-82
2022/06/12 00:32:16;;;;;;;17.67;4.93;;;13.80;86.60;;;;;;5053355;28;20118;-82
2022/06/12 00:34:46;;;;;;;11.45;4.43;;;13.80;86.00;;;;;;5053438;28;20041;-82
2022/06/12 00:37:13;;;;;;;19.05;4.78;;;13.80;85.90;;;;;;5053393;28;20489;-82
2022/06/12 00:39:41;;;;;;;14.18;4.18;;;13.90;86.00;;;;;;5036725;28;20045;-82
2022/06/12 00:42:18;;;;;;;15.95;5.28;;;13.80;86.00;;;;;;5053169;28;20048;-83
2022/06/12 00:44:44;;;;;;;14.98;4.35;;;13.80;85.70;;;;;;5036564;28;20045;-83
2022/06/12 00:47:13;;;;;;;14.00;5.88;;;13.80;86.70;;;;;;5036617;28;20044;-83
2022/06/12 00:49:43;;;;;;;17.15;5.10;;;13.80;87.40;;;;;;5036650;28;20106;-82
2022/06/12 00:52:18;;;;;;;12.80;5.38;;;13.80;87.10;;;;;;5052810;28;20045;-84
2022/06/12 00:54:48;;;;;;;15.18;5.05;;;13.80;87.80;;;;;;5053310;28;20045;-82
2022/06/12 00:57:16;;;;;;;15.00;4.40;;;13.70;87.40;;;;;;5035957;28;20029;-82
2022/06/12 00:59:46;;;;;;;15.48;4.90;;;13.80;86.60;;;;;;5019750;28;20063;-82
2022/06/12 01:02:15;;;;;;;13.77;3.97;;;13.80;88.00;;;;;;5052805;28;20072;-82
2022/06/12 01:07:32;;;;;;;19.73;6.05;;;13.80;88.40;;;;;;5038406;28;20139;-81
2022/06/12 01:10:01;;;;;;;17.63;5.18;;;13.80;88.70;;;;;;5036115;28;20094;-82
2022/06/12 01:12:31;;;;;;;29.13;5.25;;;13.80;87.60;;;;;;5051880;28;20501;-81
2022/06/12 01:15:04;;;;;;;15.32;4.65;;;13.80;87.40;;;;;;5035831;28;20053;-82
2022/06/12 01:17:31;;;;;;;12.73;4.35;;;13.80;87.60;;;;;;5035656;28;20095;-79
2022/06/12 01:20:00;;;;;;;14.40;4.85;;;13.70;88.40;;;;;;5035771;28;20049;-84
2022/06/12 01:22:44;;;;;;;15.73;4.78;;;13.70;88.30;;;;;;5052235;28;20124;-83
2022/06/12 01:25:28;;;;;;;12.68;4.25;;;13.70;88.30;;;;;;5052261;28;20045;-84
2022/06/12 01:27:57;;;;;;;14.35;4.25;;;13.60;88.90;;;;;;5052104;28;20051;-83
2022/06/12 01:30:35;;;;;;;20.88;5.22;;;13.60;88.10;;;;;;5035553;28;20041;-82
2022/06/12 01:33:09;;;;;;;19.98;5.70;;;13.60;88.40;;;;;;5052122;28;20508;-84
2022/06/12 01:35:50;;;;;;;17.38;5.15;;;13.50;89.40;;;;;;5035694;28;20037;-81
2022/06/12 01:39:06;;;;;;;16.13;5.18;;;13.50;89.30;;;;;;5035314;28;20043;-81
2022/06/12 01:41:46;;;;;;;18.95;5.88;;;13.50;89.70;;;;;;5026650;28;20136;-84
2022/06/12 01:44:36;;;;;;;14.70;4.63;;;13.50;90.00;;;;;;5051915;28;20099;-82
2022/06/12 01:47:26;;;;;;;21.33;5.50;;;13.40;89.50;;;;;;5052122;28;20052;-83
2022/06/12 01:50:04;;;;;;;20.08;6.15;;;13.50;89.90;;;;;;5035299;28;20040;-82
2022/06/12 01:53:00;;;;;;;20.85;5.45;;;13.40;89.80;;;;;;5051822;28;20041;-82
2022/06/12 01:55:49;;;;;;;12.60;4.95;;;13.40;89.40;;;;;;5051805;28;20045;-84
2022/06/12 01:58:44;;;;;;;20.15;4.88;;;13.50;89.20;;;;;;5051659;28;20049;-82
2022/06/12 02:01:51;;;;;;;16.52;5.10;;;13.40;89.90;;;;;;5052338;28;20124;-85
2022/06/12 02:04:43;;;;;;;20.50;4.93;;;13.40;90.30;;;;;;5032980;28;20049;-83
2022/06/12 02:07:17;;;;;;;16.02;5.20;;;13.40;89.30;;;;;;5051475;28;20052;-81
2022/06/12 02:09:56;;;;;;;;;;;13.50;89.30;;;;;;5052089;28;20044;-82
2022/06/12 02:15:28;;;;;;;19.08;5.18;;;13.40;89.70;;;;;;5051362;28;20064;-82
2022/06/12 02:18:03;;;;;;;20.92;5.88;;;13.40;89.80;;;;;;5051500;28;20048;-83
2022/06/12 02:20:38;;;;;;;16.60;5.00;;;13.40;90.10;;;;;;5034845;28;20481;-83
2022/06/12 02:23:11;;;;;;;17.33;5.32;;;13.40;90.10;;;;;;5051774;28;20127;-81
2022/06/12 02:25:40;;;;;;;15.65;4.80;;;13.40;90.30;;;;;;5038655;28;20040;-84
2022/06/12 02:28:14;;;;;;;20.50;5.07;;;13.40;89.50;;;;;;5055695;28;20160;-82
2022/06/12 02:30:42;;;;;;;;;;;13.40;89.60;;;;;;5056020;28;20045;-82
2022/06/12 02:33:12;;;;;;;16.80;5.20;;;13.40;90.10;;;;;;5038824;28;20011;-81
2022/06/12 02:35:56;;;;;;;15.95;5.18;;;13.40;89.60;;;;;;5038724;28;20045;-81
2022/06/12 02:38:36;;;;;;;19.02;5.57;;;13.40;89.50;;;;;;5038956;28;20045;-85
2022/06/12 02:41:07;;;;;;;21.15;5.90;;;13.40;89.50;;;;;;5038997;28;20380;-83
2022/06/12 02:43:36;;;;;;;16.92;5.60;;;13.40;90.40;;;;;;5055599;28;20044;-84
2022/06/12 02:46:12;;;;;;;18.05;5.88;;;13.40;90.20;;;;;;5055118;28;20531;-83
2022/06/12 02:48:38;;;;;;;16.63;5.00;;;13.30;91.10;;;;;;5038876;28;20511;-84
2022/06/12 02:51:34;;;;;;;25.60;6.80;;;13.30;90.90;;;;;;5038555;28;20120;-84
2022/06/12 02:54:17;;;;;;;19.02;6.05;;;13.40;91.30;;;;;;5054932;28;20504;-81
2022/06/12 02:57:04;;;;;;;23.15;5.80;;;13.30;91.30;;;;;;5038248;28;20128;-81
2022/06/12 02:59:33;;;;;;;22.10;5.45;;;13.20;91.40;;;;;;5055158;28;20427;-81
2022/06/12 03:02:06;;;;;;;22.58;5.60;;;13.30;90.30;;;;;;5055141;28;20044;-83
2022/06/12 03:05:18;;;;;;;21.08;6.05;;;13.20;91.00;;;;;;5054962;28;20037;-82
2022/06/12 03:07:44;;;;;;;22.92;5.40;;;13.30;91.40;;;;;;5054519;28;20428;-84
2022/06/12 03:10:15;;;;;;;18.10;5.90;;;13.30;90.90;;;;;;5037957;28;20110;-79
2022/06/12 03:12:41;;;;;;;20.70;6.78;;;13.20;91.50;;;;;;5037960;28;20511;-80
2022/06/12 03:15:27;;;;;;;20.98;5.80;;;13.20;90.90;;;;;;5037902;28;20067;-80
2022/06/12 03:17:52;;;;;;;19.02;5.20;;;13.20;90.90;;;;;;5037905;28;20584;-82
2022/06/12 03:20:18;;;;;;;20.33;5.90;;;13.20;91.50;;;;;;5037942;28;20123;-81
2022/06/12 03:22:56;;;;;;;17.23;5.10;;;13.20;91.30;;;;;;5038057;28;20036;-82
2022/06/12 03:25:31;;;;;;;18.02;5.65;;;13.20;91.20;;;;;;5054534;28;20076;-82
2022/06/12 03:28:45;;;;;;;20.33;6.25;;;13.20;91.90;;;;;;5054398;28;20519;-83
2022/06/12 03:31:48;;;;;;;26.17;6.57;;;13.20;91.30;;;;;;5054619;28;20115;-79
2022/06/12 03:34:38;;;;;;;19.55;6.65;;;13.30;90.90;;;;;;5054176;28;20044;-83
2022/06/12 03:37:13;;;;;;;20.83;5.18;;;13.30;91.60;;;;;;5037530;28;20045;-82
2022/06/12 03:39:55;;;;;;;15.30;3.78;;;13.30;92.40;;;;;;5054237;28;20041;-82
2022/06/12 03:42:36;;;;;;;25.67;5.53;;;13.30;92.00;;;;;;5054163;28;20050;-81
2022/06/12 03:45:15;;;;;;;19.80;5.65;;;13.30;92.30;;;;;;5040391;28;20547;-81
2022/06/12 03:47:57;;;;;;;25.92;6.15;;;13.30;92.00;;;;;;5058169;28;20049;-81
2022/06/12 03:50:40;;;;;;;18.55;5.55;;;13.30;92.50;;;;;;5057062;28;20504;-84
2022/06/12 03:53:21;;;;;;;19.63;5.53;;;13.30;92.40;;;;;;5054331;28;20048;-83
2022/06/12 03:58:55;;;;;;;18.58;5.95;;;13.30;93.00;;;;;;5053790;28;20041;-83
2022/06/12 04:01:22;;;;;;;21.63;7.35;;;13.30;92.60;;;;;;5053830;28;20040;-84
2022/06/12 04:03:49;;;;;;;25.60;6.03;;;13.30;93.00;;;;;;5037141;28;20041;-84
2022/06/12 04:06:19;;;;;;;21.35;6.97;;;13.40;92.90;;;;;;5053757;28;20071;-82
2022/06/12 04:08:53;;;;;;;23.73;6.10;;;13.40;93.00;;;;;;5037288;28;20045;-83
2022/06/12 04:11:22;;;;;;;20.00;5.90;;;13.40;92.80;;;;;;5053647;28;20052;-80
2022/06/12 04:13:49;;;;;;;28.25;5.88;;;13.50;92.40;;;;;;5036975;28;20076;-82
2022/06/12 04:16:21;;;;;;;15.80;5.32;;;13.50;92.10;;;;;;5004128;28;20053;-82
2022/06/12 04:18:47;;;;;;;23.02;6.53;;;13.50;92.70;;;;;;5036897;28;20037;-84
2022/06/12 04:21:23;;;;;;;22.50;5.93;;;13.60;93.00;;;;;;5053664;28;20045;-83
2022/06/12 04:24:00;;;;;;;20.38;6.50;;;13.60;92.00;;;;;;5053605;28;20048;-82
2022/06/12 04:26:31;;;;;;;22.25;6.32;;;13.70;92.80;;;;;;5036846;28;20098;-84
2022/06/12 04:29:01;;;;;;;23.20;6.07;;;13.80;93.60;;;;;;5053347;28;20033;-83
2022/06/12 04:31:29;;;;;;;24.27;6.45;;;13.80;93.00;;;;;;5053407;28;20037;-82
2022/06/12 04:33:56;;;;;;;21.50;5.60;;;13.90;93.50;;;;;;5053263;28;20037;-81
2022/06/12 04:36:22;;;;;;;24.45;8.57;;;13.90;93.30;;;;;;5053285;28;20428;-83
2022/06/12 04:38:48;;;;;;;27.20;7.50;;;14.00;92.60;;;;;;5036550;28;20045;-81
2022/06/12 04:41:37;;;;;;;21.38;6.22;;;14.00;92.70;;;;;;5020115;28;20040;-81
2022/06/12 04:44:05;;;;;;;23.80;7.43;;;14.10;93.00;;;;;;5036281;28;20485;-80
2022/06/12 04:46:32;;;;;;;23.40;6.63;;;14.20;92.90;;;;;;5052142;28;20052;-81
2022/06/12 04:48:59;;;;;;;25.10;6.70;;;14.30;93.90;;;;;;5052788;28;20076;-81
2022/06/12 04:51:25;;;;;;;27.83;7.30;;;14.40;93.60;;;;;;5053120;28;20051;-82
2022/06/12 04:53:52;;;;;;;24.20;7.28;;;14.40;93.60;;;;;;5036307;28;20116;-80
2022/06/12 04:56:20;;;;;;;21.92;7.10;;;14.50;93.70;;;;;;5036562;28;20106;-83
2022/06/12 04:58:46;;;;;;;25.33;7.07;;;14.50;93.60;;;;;;5052978;28;20037;-82
2022/06/12 05:01:13;;;;;;;26.08;7.97;;;14.50;94.00;;;;;;5053288;28;20572;-82
2022/06/12 05:03:39;;;;;;;32.95;8.38;;;14.50;93.60;;;;;;5036014;28;20043;-82
2022/06/12 05:06:06;;;;;;;24.75;7.65;;;14.60;93.40;;;;;;5036267;28;20033;-83
2022/06/12 05:08:33;;;;;;;28.10;7.75;;;14.60;92.80;;;;;;5052845;28;20116;-81
2022/06/12 05:10:59;;;;;;;25.40;7.30;;;14.70;92.40;;;;;;5035996;28;20095;-83
2022/06/12 05:13:24;;;;;;;24.65;7.68;;;14.80;93.10;;;;;;5036288;28;20033;-80
2022/06/12 05:15:50;;;;;;;31.42;8.68;;;14.80;93.10;;;;;;5052407;28;20212;-82
2022/06/12 05:18:18;;;;;;;31.17;8.23;;;14.90;92.50;;;;;;5035555;28;20504;-83
2022/06/12 05:20:45;;;;;;;34.08;9.00;;;14.90;92.60;;;;;;5052409;28;20090;-80
2022/06/12 05:23:12;;;;;;;31.98;7.63;;;15.00;92.10;;;;;;5052294;28;20052;-83
2022/06/12 05:25:39;;;;;;;27.50;8.20;;;15.00;92.00;;;;;;5036152;28;20041;-81
2022/06/12 05:28:06;;;;;;;27.70;7.88;;;15.10;93.00;;;;;;5035619;28;20048;-82
2022/06/12 05:30:34;;;;;;;28.67;7.75;;;15.10;92.40;;;;;;5019506;28;20075;-82
2022/06/12 05:33:01;;;;;;;24.70;6.65;;;15.20;92.20;;;;;;5035504;28;20037;-83
2022/06/12 05:35:29;;;;;;;28.92;9.65;;;15.30;92.10;;;;;;5019092;28;20041;-81
2022/06/12 05:37:55;;;;;;;28.17;8.10;;;15.40;92.00;;;;;;5051961;28;20045;-82
2022/06/12 05:40:27;;;;;;;29.33;9.82;;;15.40;92.30;;;;;;5052267;28;20624;-81
2022/06/12 05:42:53;;;;;;;31.15;9.48;;;15.50;92.00;;;;;;5035416;28;20037;-82
2022/06/12 05:45:23;;;;;;;27.75;9.55;;;15.50;91.90;;;;;;5019220;28;20500;-81
2022/06/12 05:47:56;;;;;;;29.95;8.68;;;15.60;91.90;;;;;;5051949;28;20044;-82
2022/06/12 05:50:24;;;;;;;27.65;9.00;;;15.70;91.90;;;;;;5051896;28;20098;-80
2022/06/12 05:52:50;;;;;;;31.70;11.18;;;15.80;91.80;;;;;;5051816;28;20095;-80
2022/06/12 05:55:16;;;;;;;34.95;9.68;;;15.90;91.90;;;;;;5035141;28;20036;-81
2022/06/12 05:57:42;;;;;;;33.88;9.63;;;16.00;91.90;;;;;;5034831;28;20045;-83
2022/06/12 06:00:15;;;;;;;36.55;9.63;;;16.00;91.70;;;;;;5035279;28;20037;-81
2022/06/12 06:02:43;;;;;;;26.33;9.05;;;16.10;91.50;;;;;;5052011;28;20079;-83
2022/06/12 06:05:08;;;;;;;34.38;9.73;;;16.20;91.40;;;;;;5035440;28;20051;-81
2022/06/12 06:07:35;;;;;;;27.90;10.23;;;16.30;91.20;;;;;;5035053;28;20045;-83
2022/06/12 06:10:02;;;;;;;32.85;9.30;;;16.40;91.20;;;;;;5035121;28;20055;-85
2022/06/12 06:12:28;;;;;;;33.67;8.95;;;16.50;90.90;;;;;;5051671;28;20053;-81
2022/06/12 06:14:54;;;;;;;25.45;7.68;;;16.50;90.80;;;;;;5034879;28;20060;-83
2022/06/12 06:17:20;;;;;;;33.33;8.20;;;16.60;90.40;;;;;;5002173;28;20103;-81
2022/06/12 06:19:45;;;;;;;27.27;8.63;;;16.70;90.00;;;;;;5051664;28;20044;-80
2022/06/12 06:22:16;;;;;;;26.98;8.77;;;16.80;89.80;;;;;;5035048;28;20079;-82
2022/06/12 06:24:42;;;;;;;27.73;7.07;;;16.80;89.50;;;;;;5035139;28;20032;-81
2022/06/12 06:27:09;;;;;;;38.90;8.63;;;16.90;88.70;;;;;;5018513;28;20055;-81
2022/06/12 06:29:36;;;;;;;24.30;6.75;;;16.90;88.50;;;;;;5034915;28;20049;-81
2022/06/12 06:32:02;;;;;;;22.35;6.47;;;17.00;88.00;;;;;;5035298;28;20456;-81
2022/06/12 06:34:28;;;;;;;31.10;7.45;;;17.00;87.90;;;;;;5051478;28;20131;-82
2022/06/12 06:36:54;;;;;;;33.40;8.25;;;17.10;87.70;;;;;;5034935;28;20045;-80
2022/06/12 06:39:20;;;;;;;25.30;6.97;;;17.20;87.20;;;;;;5018584;28;20040;-82
2022/06/12 06:41:46;;;;;;;21.50;6.60;;;17.30;87.30;;;;;;5035105;28;20454;-85
2022/06/12 06:46:56;;;;;;;26.92;8.25;;;17.40;86.40;;;;;;5051547;28;20091;-82
2022/06/12 06:49:23;;;;;;;18.75;5.45;;;17.40;85.50;;;;;;5051371;28;20497;-82
2022/06/12 06:51:49;;;;;;;14.68;4.93;;;17.50;85.10;;;;;;5034685;28;20068;-83
2022/06/12 06:54:16;;;;;;;19.20;5.72;;;17.50;84.40;;;;;;5051776;28;20052;-81
2022/06/12 06:56:42;;;;;;;19.00;5.55;;;17.50;83.20;;;;;;5034569;28;20083;-81
2022/06/12 06:59:08;;;;;;;18.52;4.95;;;17.60;82.40;;;;;;5001965;28;20044;-82
2022/06/12 07:01:34;;;;;;;16.80;4.75;;;17.70;82.00;;;;;;5018288;28;20033;-80
2022/06/12 07:04:00;;;;;;;15.50;5.65;;;17.80;81.90;;;;;;5018477;28;20037;-83
2022/06/12 07:06:27;;;;;;;22.65;6.85;;;17.90;81.00;;;;;;5018174;28;20079;-82
2022/06/12 07:08:54;;;;;;;19.30;6.50;;;17.90;81.00;;;;;;5034785;28;20493;-82
2022/06/12 07:11:20;;;;;;;15.10;5.57;;;18.00;81.30;;;;;;5021371;28;20110;-81
2022/06/12 07:13:46;;;;;;;20.88;5.30;;;18.10;80.40;;;;;;5055636;28;20501;-82
2022/06/12 07:16:12;;;;;;;18.15;5.60;;;18.20;79.30;;;;;;5038399;28;20064;-81
2022/06/12 07:18:38;;;;;;;16.15;5.03;;;18.20;78.90;;;;;;5038802;28;20076;-80
2022/06/12 07:21:05;;;;;;;14.88;4.30;;;18.30;78.80;;;;;;5022228;28;20048;-83
2022/06/12 07:23:32;;;;;;;15.07;5.05;;;18.40;78.50;;;;;;5021805;28;20151;-82
2022/06/12 07:26:05;;;;;;;16.45;5.93;;;18.40;78.30;;;;;;5038297;28;20456;-81
2022/06/12 07:28:36;;;;;;;15.85;4.97;;;18.50;78.50;;;;;;5038080;28;20132;-81
2022/06/12 07:31:03;;;;;;;13.95;4.45;;;18.50;77.60;;;;;;5054580;28;20052;-83
2022/06/12 07:33:29;;;;;;;9.93;3.70;;;18.50;75.30;;;;;;5037879;28;20174;-80
2022/06/12 07:35:55;;;;;;;13.30;4.15;;;18.50;74.70;;;;;;5038054;28;20063;-83
2022/06/12 07:38:24;;;;;;;11.80;3.20;;;18.60;74.70;;;;;;5037825;28;20037;-81
2022/06/12 07:40:54;;;;;;;16.13;4.47;;;18.70;73.50;;;;;;5054510;28;20071;-82
2022/06/12 07:43:20;;;;;;;12.18;3.38;;;18.80;73.70;;;;;;5038052;28;20037;-81
2022/06/12 07:45:47;;;;;;;10.95;3.05;;;18.90;73.00;;;;;;5054590;28;20481;-82
2022/06/12 07:48:13;;;;;;;10.25;3.30;;;18.90;73.50;;;;;;5038651;28;20087;-82
2022/06/12 07:50:40;;;;;;;10.73;4.28;;;19.00;73.20;;;;;;5058343;28;20431;-80
2022/06/12 07:53:06;;;;;;;6.47;2.50;;;19.10;72.30;;;;;;5041892;28;20045;-83
2022/06/12 07:55:32;;;;;;;11.02;3.47;;;19.20;71.50;;;;;;5041749;28;20041;-81
2022/06/12 07:57:58;;;;;;;14.70;4.38;;;19.20;70.60;;;;;;5008685;28;20041;-81
2022/06/12 08:00:24;;;;;;;8.65;2.70;;;19.30;70.30;;;;;;5041102;28;20045;-80
2022/06/12 08:02:51;;;;;;;9.60;3.47;;;19.20;69.30;;;;;;5057937;28;20037;-84
2022/06/12 08:05:21;;;;;;;10.18;3.63;;;19.30;68.30;;;;;;5041586;28;20043;-81
2022/06/12 08:07:47;;;;;;;10.98;3.80;;;19.30;69.40;;;;;;5057686;28;20063;-82
2022/06/12 08:10:14;;;;;;;9.60;3.55;;;19.30;70.20;;;;;;5058030;28;20052;-81
2022/06/12 08:12:43;;;;;;;6.90;2.70;;;19.40;69.70;;;;;;5022875;28;20451;-83
2022/06/12 08:15:13;;;;;;;11.93;3.53;;;19.40;69.00;;;;;;5053754;28;20056;-83
2022/06/12 08:17:38;;;;;;;7.00;2.22;;;19.50;68.70;;;;;;5037037;28;20080;-80
2022/06/12 08:22:50;;;;;;;6.80;3.47;;;19.60;67.00;;;;;;5053540;28;20132;-82
2022/06/12 08:25:16;;;;;;;7.90;2.38;;;19.60;67.60;;;;;;5036974;28;20045;-82
2022/06/12 08:27:42;;;;;;;7.18;3.22;;;19.60;66.40;;;;;;5036605;28;20037;-81
2022/06/12 08:30:08;;;;;;;7.65;3.05;;;19.70;67.20;;;;;;5036708;28;20041;-82
2022/06/12 08:32:35;;;;;;;7.20;2.50;;;19.70;67.30;;;;;;5036698;28;20547;-81
2022/06/12 08:35:06;;;;;;;9.70;2.70;;;19.90;67.20;;;;;;5020418;28;20043;-82
2022/06/12 08:37:34;;;;;;;9.50;2.25;;;19.90;65.70;;;;;;5053173;28;20060;-84
2022/06/12 08:40:01;;;;;;;7.20;2.63;;;19.90;64.50;;;;;;5053200;28;20087;-82
2022/06/12 08:42:41;;;;;;;6.28;2.13;;;19.90;62.30;;;;;;5036508;28;20047;-78
2022/06/12 08:45:15;;;;;;;9.60;2.88;;;19.90;63.10;;;;;;5053330;28;20091;-82
2022/06/12 08:47:44;;;;;;;;;;;20.00;64.70;;;;;;5036911;28;20489;-80
2022/06/12 08:50:28;;;;;;;5.50;2.45;;;20.10;64.70;;;;;;5036611;28;19940;-81
2022/06/12 08:53:14;;;;;;;7.90;2.42;;;20.00;63.00;;;;;;5036276;28;20041;-83
2022/06/12 08:55:51;;;;;;;6.78;2.20;;;20.10;63.00;;;;;;5053052;28;20052;-83
2022/06/12 08:58:28;;;;;;;6.85;2.42;;;20.10;63.50;;;;;;5052857;28;20486;-81
2022/06/12 09:00:54;;;;;;;7.40;2.60;;;20.00;61.50;;;;;;5053099;28;20037;-80
2022/06/12 09:03:23;;;;;;;9.82;2.53;;;20.00;62.50;;;;;;5003889;28;20427;-82
2022/06/12 09:06:14;;;;;;;8.38;2.80;;;20.00;63.00;;;;;;5036600;28;20084;-81
2022/06/12 09:08:59;;;;;;;9.40;2.17;;;20.20;63.10;;;;;;5052623;28;20128;-81
2022/06/12 09:11:33;;;;;;;5.53;2.40;;;20.20;62.70;;;;;;5052748;28;20068;-80
2022/06/12 09:14:07;;;;;;;7.25;2.13;;;20.30;60.90;;;;;;5053066;28;20111;-80
2022/06/12 09:16:47;;;;;;;6.65;2.45;;;20.30;61.10;;;;;;5035504;28;20059;-82
2022/06/12 09:19:29;;;;;;;8.18;2.78;;;20.20;59.70;;;;;;5036047;28;20041;-78
2022/06/12 09:22:02;;;;;;;6.80;2.33;;;20.20;60.50;;;;;;5035765;28;20043;-78
2022/06/12 09:25:06;;;;;;;10.80;2.83;;;20.40;61.70;;;;;;5052310;28;20079;-81
2022/06/12 09:27:44;;;;;;;6.72;2.35;;;20.50;60.70;;;;;;5035425;28;20559;-80
2022/06/12 09:30:18;;;;;;;9.05;2.58;;;20.50;59.70;;;;;;5052236;28;20084;-79
2022/06/12 09:32:59;;;;;;;9.13;2.58;;;20.20;60.20;;;;;;5051909;28;20128;-81
2022/06/12 09:36:02;;;;;;;10.63;3.28;;;20.00;60.70;;;;;;5052354;28;20591;-79
2022/06/12 09:39:03;;;;;;;7.90;2.35;;;20.10;60.80;;;;;;5051931;28;20048;-82
2022/06/12 09:41:32;;;;;;;5.55;2.25;;;20.20;60.10;;;;;;5052148;28;20045;-80
2022/06/12 09:44:24;;;;;;;7.63;2.70;;;20.30;61.10;;;;;;5035352;28;20396;-78
2022/06/12 09:47:22;;;;;;;10.65;2.90;;;20.50;60.60;;;;;;5051911;28;20051;-81
2022/06/12 09:50:13;;;;;;;6.97;3.50;;;20.50;60.80;;;;;;5018997;28;20049;-80
2022/06/12 09:52:59;;;;;;;7.65;3.33;;;20.60;61.30;;;;;;5034930;28;20053;-79
2022/06/12 09:55:32;;;;;;;8.60;3.08;;;20.60;61.10;;;;;;5051978;28;20049;-79
2022/06/12 09:58:35;;;;;;;6.75;2.50;;;20.70;61.40;;;;;;5051852;28;20080;-81
2022/06/12 10:01:26;;;;;;;10.60;2.90;;;20.60;62.30;;;;;;5004885;28;20385;-81
2022/06/12 10:03:55;;;;;;;9.75;2.97;;;20.90;63.20;;;;;;5044833;28;20045;-83
2022/06/12 10:06:33;;;;;;;6.85;2.30;;;20.80;61.30;;;;;;5051884;28;20048;-81
2022/06/12 10:09:13;;;;;;;8.25;3.08;;;20.90;60.60;;;;;;5051979;28;20064;-83
2022/06/12 10:12:15;;;;;;;8.38;3.13;;;20.90;61.20;;;;;;5035173;28;20584;-80
2022/06/12 10:14:46;;;;;;;9.32;3.20;;;20.60;61.10;;;;;;5031309;28;20049;-82
2022/06/12 10:17:27;;;;;;;9.70;3.38;;;20.60;62.10;;;;;;5051657;28;20115;-80
2022/06/12 10:20:02;;;;;;;11.13;3.72;;;20.60;62.50;;;;;;5051788;28;20392;-79
2022/06/12 10:22:38;;;;;;;10.65;2.92;;;20.30;63.60;;;;;;5051734;28;20127;-80
2022/06/12 10:25:06;;;;;;;10.30;3.58;;;20.30;63.80;;;;;;5051774;28;20122;-81
2022/06/12 10:27:59;;;;;;;10.98;3.63;;;20.40;64.40;;;;;;5051717;28;20048;-78
2022/06/12 10:30:45;;;;;;;8.57;3.45;;;20.50;61.50;;;;;;5051547;28;20049;-80
2022/06/12 10:33:26;;;;;;;11.77;3.67;;;20.50;62.70;;;;;;5034360;28;20053;-79
2022/06/12 10:35:53;;;;;;;7.88;3.05;;;20.40;63.90;;;;;;5051478;28;20047;-82
2022/06/12 10:38:21;;;;;;;9.63;3.75;;;20.20;63.60;;;;;;5034806;28;20103;-78
2022/06/12 10:40:50;;;;;;;10.30;3.90;;;20.20;64.70;;;;;;5051611;28;20451;-81
2022/06/12 10:43:24;;;;;;;10.40;3.17;;;20.10;65.00;;;;;;5051297;28;20037;-78
2022/06/12 10:45:58;;;;;;;13.25;3.95;;;20.10;63.90;;;;;;5037236;28;20096;-79
2022/06/12 10:48:29;;;;;;;10.98;3.25;;;20.40;64.30;;;;;;5055267;28;20037;-82
2022/06/12 10:50:58;;;;;;;9.65;3.75;;;20.40;64.20;;;;;;5038679;28;20127;-81
2022/06/12 10:53:27;;;;;;;10.52;4.45;;;20.60;64.90;;;;;;5038655;28;20041;-77
2022/06/12 10:56:08;;;;;;;12.23;4.32;;;20.70;63.50;;;;;;5055095;28;20041;-80
2022/06/12 10:58:52;;;;;;;9.73;3.42;;;20.80;63.30;;;;;;5054912;28;20047;-80
2022/06/12 11:01:30;;;;;;;11.05;3.92;;;20.90;61.60;;;;;;5038868;28;20045;-78
2022/06/12 11:03:56;;;;;;;8.15;3.00;;;21.00;61.50;;;;;;5055421;28;20362;-81
2022/06/12 11:06:32;;;;;;;9.65;3.67;;;20.90;61.60;;;;;;5054960;28;20039;-81
2022/06/12 11:09:11;;;;;;;17.77;5.03;;;20.90;61.00;;;;;;5055194;28;20041;-81
2022/06/12 11:12:32;;;;;;;8.38;3.70;;;20.90;61.00;;;;;;5054926;28;20041;-79
2022/06/12 11:15:16;;;;;;;9.45;3.72;;;20.80;59.40;;;;;;5030936;28;20076;-80
2022/06/12 11:18:04;;;;;;;5.30;2.40;;;20.70;61.00;;;;;;5038712;28;20041;-79
2022/06/12 11:20:46;;;;;;;8.27;3.00;;;20.80;59.50;;;;;;5055465;28;20120;-80
2022/06/12 11:23:27;;;;;;;8.85;2.80;;;20.70;59.40;;;;;;5055238;28;20040;-80
2022/06/12 11:26:40;;;;;;;7.20;3.03;;;20.60;58.70;;;;;;5037982;28;20512;-80
2022/06/12 11:29:18;;;;;;;9.32;2.17;;;20.40;59.00;;;;;;5054473;28;20036;-79
2022/06/12 11:32:12;;;;;;;8.05;3.33;;;20.40;57.40;;;;;;5054475;28;20033;-81
2022/06/12 11:35:09;;;;;;;8.27;3.10;;;20.40;59.10;;;;;;5037847;28;20037;-81
2022/06/12 11:38:06;;;;;;;6.57;2.42;;;20.40;59.60;;;;;;5054375;28;20123;-80
2022/06/12 11:41:07;;;;;;;6.57;2.30;;;20.30;58.30;;;;;;5054308;28;20032;-82
2022/06/12 11:43:42;;;;;;;8.27;2.80;;;20.50;57.30;;;;;;5054571;28;20029;-81
2022/06/12 11:46:20;;;;;;;7.53;3.40;;;20.80;56.80;;;;;;5054319;28;20094;-79
2022/06/12 11:49:04;;;;;;;6.65;2.72;;;20.90;57.10;;;;;;5054430;28;20131;-81
2022/06/12 11:52:07;;;;;;;6.72;2.55;;;21.00;57.30;;;;;;5037664;28;20041;-82
2022/06/12 11:54:57;;;;;;;8.23;2.78;;;20.90;56.90;;;;;;5037699;28;20149;-80
2022/06/12 11:57:39;;;;;;;6.70;2.10;;;20.90;56.00;;;;;;5037109;28;20048;-80
2022/06/12 12:00:08;;;;;;;6.95;1.98;;;21.00;55.40;;;;;;5054224;28;20037;-82
2022/06/12 12:02:49;;;;;;;8.50;2.88;;;21.00;55.30;;;;;;5053843;28;20085;-81
2022/06/12 12:05:50;;;;;;;9.18;2.70;;;20.80;55.30;;;;;;5054195;28;20037;-82
2022/06/12 12:08:31;;;;;;;7.07;2.65;;;20.80;56.20;;;;;;5037519;28;20428;-82
2022/06/12 12:11:08;;;;;;;4.97;2.63;;;20.90;56.00;;;;;;5037370;28;20045;-81
2022/06/12 12:13:48;;;;;;;9.35;3.13;;;20.90;57.10;;;;;;5054077;28;20445;-81
2022/06/12 12:16:39;;;;;;;6.47;2.45;;;21.10;57.80;;;;;;5053725;28;20128;-81
2022/06/12 12:19:39;;;;;;;5.93;2.90;;;21.10;57.30;;;;;;5037245;28;20056;-82
2022/06/12 12:22:15;;;;;;;6.10;2.50;;;21.10;56.70;;;;;;5037020;28;20137;-80
2022/06/12 12:24:49;;;;;;;10.55;2.88;;;20.90;56.40;;;;;;5037259;28;20048;-80
2022/06/12 12:27:30;;;;;;;9.45;2.85;;;21.00;57.20;;;;;;5053729;28;20110;-82
2022/06/12 12:29:58;;;;;;;15.57;3.50;;;20.90;56.60;;;;;;5036943;28;20040;-82
2022/06/12 12:32:24;;;;;;;6.18;3.30;;;20.90;56.50;;;;;;5053475;28;20049;-81
2022/06/12 12:34:52;;;;;;;10.15;2.78;;;20.80;57.50;;;;;;5020523;28;20044;-81
2022/06/12 12:42:47;;;;;;;10.05;3.25;;;20.70;57.00;;;;;;5053365;28;20045;-80
2022/06/12 12:45:22;;;;;;;8.15;3.10;;;20.90;56.40;;;;;;5036804;28;20037;-80
2022/06/12 12:48:11;;;;;;;6.70;2.75;;;20.90;57.00;;;;;;5053305;28;20110;-81
2022/06/12 12:50:51;;;;;;;4.75;2.35;;;21.10;54.20;;;;;;5021560;28;20083;-81
2022/06/12 12:53:28;;;;;;;10.10;3.22;;;21.10;55.40;;;;;;5036528;28;20048;-79
2022/06/12 12:56:31;;;;;;;11.75;3.10;;;21.00;55.20;;;;;;5036530;28;20044;-81
2022/06/12 12:59:08;;;;;;;9.52;2.97;;;20.90;56.90;;;;;;5023701;28;20049;-81
2022/06/12 13:01:44;;;;;;;5.45;3.17;;;21.10;56.50;;;;;;5036483;28;20386;-81
2022/06/12 13:04:17;;;;;;;8.68;3.45;;;21.10;54.80;;;;;;5053005;28;20131;-81
2022/06/12 13:06:51;;;;;;;11.50;2.97;;;21.20;56.50;;;;;;5052978;28;20280;-80
2022/06/12 13:09:29;;;;;;;11.15;3.00;;;21.30;56.90;;;;;;5035567;28;20393;-80
2022/06/12 13:12:41;;;;;;;10.85;3.75;;;21.40;55.20;;;;;;5052724;28;20032;-81
2022/06/12 13:15:43;;;;;;;6.63;3.25;;;21.40;56.10;;;;;;5036148;28;20045;-79
2022/06/12 13:18:49;;;;;;;8.98;2.97;;;21.30;56.30;;;;;;5036177;28;20045;-78
2022/06/12 13:21:26;;;;;;;7.95;3.00;;;21.30;55.70;;;;;;5052955;28;20405;-80
2022/06/12 13:24:10;;;;;;;8.77;3.15;;;21.50;55.80;;;;;;5055194;28;20113;-79
2022/06/12 13:26:40;;;;;;;7.50;2.50;;;21.50;54.70;;;;;;5046743;28;20032;-82
2022/06/12 13:29:16;;;;;;;7.68;2.40;;;21.40;53.70;;;;;;5062262;28;20029;-84
2022/06/12 13:31:58;;;;;;;7.80;2.90;;;21.50;53.50;;;;;;5046465;28;20032;-83
2022/06/12 13:34:25;;;;;;;5.90;2.58;;;21.50;53.50;;;;;;5049414;28;20485;-82
2022/06/12 13:36:51;;;;;;;10.88;3.03;;;21.50;54.40;;;;;;5061049;28;20040;-82
2022/06/12 13:39:36;;;;;;;12.05;3.28;;;21.60;54.70;;;;;;5045979;28;20075;-85